Time;durP1;ratioP1;P1;durP2;ratioP2;P2;SDS_P1;SDS_P2;PMS_P1;PMS_P2;Temp;Humidity;BMP_temperature;BMP_pressure;BME280_temperature;BME280_humidity;BME280_pressure;Samples;Min_cycle;Max_cycle;Signal;HPM_P1;HPM_P2
2021/12/08 00:02:19;;;;;;;;;;;17.20;99.90;;;;;;5079999;28;7914;-65
2021/12/08 00:04:45;;;;;;;;;;;17.30;99.90;;;;;;5081089;28;8143;-66
2021/12/08 00:07:11;;;;;;;;;;;17.20;99.90;;;;;;5080969;28;7542;-65
2021/12/08 00:10:03;;;;;;;;;;;17.20;99.90;;;;;;5062820;28;7868;-65
2021/12/08 00:15:14;;;;;;;;;;;17.20;99.90;;;;;;5096784;28;8392;-65
2021/12/08 00:17:40;;;;;;;;;;;17.20;99.90;;;;;;5082118;28;7904;-65
2021/12/08 00:20:06;;;;;;;;;;;17.20;99.90;;;;;;5100590;28;7899;-65
2021/12/08 00:22:33;;;;;;;;;;;17.30;99.90;;;;;;5100046;28;8283;-65
2021/12/08 00:24:59;;;;;;;;;;;17.30;99.90;;;;;;5082669;28;7553;-65
2021/12/08 00:27:25;;;;;;;;;;;17.30;99.90;;;;;;5100292;28;7931;-66
2021/12/08 00:29:51;;;;;;;;;;;17.30;99.90;;;;;;5087010;28;8405;-65
2021/12/08 00:32:20;;;;;;;;;;;17.40;99.90;;;;;;5061638;28;7956;-65
2021/12/08 00:34:47;;;;;;;;;;;17.40;99.90;;;;;;5079270;28;7951;-65
2021/12/08 00:37:13;;;;;;;;;;;17.40;99.90;;;;;;5038522;28;7582;-66
2021/12/08 00:39:39;;;;;;;;;;;17.50;99.90;;;;;;5039167;28;7851;-66
2021/12/08 00:42:05;;;;;;;;;;;17.50;99.90;;;;;;5038041;28;7809;-65
2021/12/08 00:44:32;;;;;;;;;;;17.50;99.90;;;;;;5047984;28;8294;-65
2021/12/08 00:46:58;;;;;;;;;;;17.60;99.90;;;;;;5059330;28;7800;-65
2021/12/08 00:49:24;;;;;;;;;;;17.70;99.90;;;;;;5058481;28;8321;-65
2021/12/08 00:51:50;;;;;;;;;;;17.80;99.90;;;;;;5058139;28;7566;-65
2021/12/08 00:54:17;;;;;;;;;;;17.80;99.90;;;;;;5058920;28;8131;-66
2021/12/08 00:56:43;;;;;;;;;;;17.80;99.90;;;;;;5058719;28;7867;-65
2021/12/08 00:59:09;;;;;;;;;;;17.80;99.90;;;;;;5066980;28;7940;-64
2021/12/08 01:01:35;;;;;;;;;;;17.80;99.90;;;;;;5037833;28;7940;-65
2021/12/08 01:04:02;;;;;;;;;;;17.90;99.90;;;;;;5039556;28;7570;-65
2021/12/08 01:06:28;;;;;;;;;;;17.90;99.90;;;;;;5037270;28;7855;-65
2021/12/08 01:08:54;;;;;;;;;;;17.90;99.90;;;;;;5037538;28;8121;-65
2021/12/08 01:11:20;;;;;;;;;;;17.90;99.90;;;;;;5038023;28;7768;-65
2021/12/08 01:13:47;;;;;;;;;;;18.00;99.90;;;;;;5040451;28;8992;-65
2021/12/08 01:16:13;;;;;;;;;;;18.10;99.90;;;;;;5056357;28;7601;-65
2021/12/08 01:18:40;;;;;;;;;;;18.10;99.90;;;;;;5054691;28;8187;-65
2021/12/08 01:21:07;;;;;;;;;;;18.00;99.90;;;;;;5054425;28;7872;-65
2021/12/08 01:23:35;;;;;;;;;;;18.10;99.90;;;;;;5055339;28;8086;-65
2021/12/08 01:26:02;;;;;;;;;;;18.30;99.90;;;;;;5054191;28;8915;-65
2021/12/08 01:28:28;;;;;;;;;;;18.30;99.90;;;;;;5052529;28;8044;-65
2021/12/08 01:30:54;;;;;;;;;;;18.30;99.90;;;;;;5036472;28;8105;-65
2021/12/08 01:33:23;;;;;;;;;;;18.30;99.90;;;;;;5035600;28;7856;-65
2021/12/08 01:35:49;;;;;;;;;;;18.30;99.90;;;;;;5034560;28;7929;-65
2021/12/08 01:38:16;;;;;;;;;;;18.30;99.90;;;;;;5035633;28;8062;-65
2021/12/08 01:40:44;;;;;;;;;;;18.40;99.90;;;;;;5034413;28;8156;-65
2021/12/08 01:43:23;;;;;;;;;;;18.50;99.90;;;;;;5034971;28;7539;-65
2021/12/08 01:46:00;;;;;;;;;;;18.60;99.90;;;;;;5035109;28;8042;-65
2021/12/08 01:48:28;;;;;;;;;;;18.70;99.90;;;;;;5035636;28;8065;-65
2021/12/08 01:51:00;;;;;;;;;;;18.80;99.90;;;;;;5035948;28;7963;-65
2021/12/08 01:53:26;;;;;;;;;;;18.80;99.90;;;;;;5034827;28;8116;-65
2021/12/08 01:55:52;;;;;;;;;;;19.00;99.90;;;;;;5035919;28;8008;-65
2021/12/08 01:58:19;;;;;;;;;;;19.00;99.90;;;;;;5036006;28;7554;-65
2021/12/08 02:01:05;;;;;;;;;;;19.00;99.90;;;;;;5055456;28;7814;-66
2021/12/08 02:03:31;;;;;;;;;;;19.10;99.90;;;;;;5055657;28;7991;-65
2021/12/08 02:05:58;;;;;;;;;;;19.20;99.90;;;;;;5055776;28;7816;-65
2021/12/08 02:08:24;;;;;;;;;;;19.30;99.90;;;;;;5055211;28;7810;-65
2021/12/08 02:10:50;;;;;;;;;;;19.40;99.90;;;;;;5054861;28;8147;-65
2021/12/08 02:13:17;;;;;;;;;;;19.40;99.90;;;;;;5055622;28;7538;-65
2021/12/08 02:15:43;;;;;;;;;;;19.50;99.90;;;;;;5033953;28;8164;-65
2021/12/08 02:18:11;;;;;;;;;;;19.60;99.90;;;;;;5033668;28;8990;-65
2021/12/08 02:20:38;;;;;;;;;;;19.70;99.90;;;;;;5033450;28;8189;-65
2021/12/08 02:23:04;;;;;;;;;;;19.70;99.90;;;;;;5035170;28;7972;-65
2021/12/08 02:25:30;;;;;;;;;;;19.80;99.90;;;;;;5033150;28;8440;-65
2021/12/08 02:27:57;;;;;;;;;;;19.80;99.90;;;;;;5036148;28;7538;-65
2021/12/08 02:30:42;;;;;;;;;;;19.90;99.90;;;;;;5054239;28;8623;-65
2021/12/08 02:47:16;;;;;;;;;;;20.10;99.90;;;;;;5101631;28;7942;-65
2021/12/08 02:49:38;;;;;;;;;;;20.30;99.90;;;;;;5100520;28;7888;-63
2021/12/08 02:52:06;;;;;;;;;;;20.40;99.90;;;;;;5082078;28;7534;-64
2021/12/08 02:54:33;;;;;;;;;;;20.50;99.90;;;;;;5071664;28;8281;-64
2021/12/08 02:56:59;;;;;;;;;;;20.60;99.90;;;;;;5079360;28;8545;-63
2021/12/08 02:59:25;;;;;;;;;;;20.60;99.90;;;;;;5080537;28;7895;-64
2021/12/08 03:01:51;;;;;;;;;;;20.60;99.90;;;;;;5070428;28;8199;-65
2021/12/08 03:04:18;;;;;;;;;;;20.70;99.90;;;;;;5070606;28;8435;-65
2021/12/08 03:06:44;;;;;;;;;;;20.90;99.90;;;;;;5044484;28;14477;-64
2021/12/08 03:09:10;;;;;;;;;;;20.90;99.90;;;;;;5046493;28;13916;-64
2021/12/08 03:11:36;;;;;;;;;;;20.90;99.90;;;;;;5063332;28;13978;-64
2021/12/08 03:14:04;;;;;;;;;;;21.00;99.90;;;;;;5048994;28;13829;-64
2021/12/08 03:16:30;;;;;;;;;;;21.10;99.90;;;;;;5063489;28;13812;-64
2021/12/08 03:18:57;;;;;;;;;;;21.20;99.90;;;;;;5085355;28;13811;-64
2021/12/08 03:21:29;;;;;;;;;;;21.20;99.90;;;;;;5061955;28;13888;-64
2021/12/08 03:26:55;;;;;;;;;;;21.10;99.90;;;;;;5083261;28;14581;-64
2021/12/08 03:32:29;;;;;;;;;;;21.10;99.90;;;;;;5020291;28;13848;-64
2021/12/08 03:34:55;;;;;;;;;;;21.30;99.90;;;;;;5059494;28;13829;-63
2021/12/08 03:37:24;;;;;;;;;;;21.40;99.90;;;;;;5077940;28;13911;-64
2021/12/08 03:39:50;;;;;;;;;;;21.60;99.90;;;;;;5077236;28;13816;-63
2021/12/08 03:42:18;;;;;;;;;;;21.60;99.90;;;;;;5059113;28;14500;-64
2021/12/08 03:44:44;;;;;;;;;;;21.60;99.90;;;;;;5057321;28;13836;-64
2021/12/08 03:47:16;;;;;;;;;;;21.80;99.90;;;;;;5061173;28;13798;-64
2021/12/08 03:49:43;;;;;;;;;;;21.80;99.90;;;;;;5067089;28;11020;-64
2021/12/08 03:52:09;;;;;;;;;;;21.90;99.90;;;;;;5068062;28;11106;-64
2021/12/08 03:54:35;;;;;;;;;;;21.90;99.90;;;;;;5032977;28;11261;-64
2021/12/08 03:57:02;;;;;;;;;;;22.00;99.90;;;;;;5065460;28;11849;-63
2021/12/08 03:59:28;;;;;;;;;;;22.20;99.90;;;;;;5066905;28;13825;-64
2021/12/08 04:01:54;;;;;;;;;;;22.20;99.90;;;;;;5084669;28;13802;-64
2021/12/08 04:04:25;;;;;;;;;;;22.30;99.90;;;;;;5066124;28;13791;-64
2021/12/08 04:06:52;;;;;;;;;;;22.40;99.90;;;;;;5083269;28;13845;-64
2021/12/08 04:09:43;;;;;;;;;;;22.50;99.90;;;;;;5083356;28;13774;-65
2021/12/08 04:12:13;;;;;;;;;;;22.60;99.90;;;;;;5071328;28;11916;-63
2021/12/08 04:14:40;;;;;;;;;;;22.80;99.90;;;;;;5049546;28;8564;-64
2021/12/08 04:17:19;;;;;;;;;;;22.90;99.90;;;;;;5069782;28;8165;-64
2021/12/08 04:19:46;;;;;;;;;;;22.50;99.90;;;;;;5052862;28;8031;-65
2021/12/08 04:22:16;;;;;;;;;;;22.60;99.90;;;;;;5069368;28;8386;-64
2021/12/08 04:24:42;;;;;;;;;;;22.70;99.90;;;;;;5050380;28;8151;-64
2021/12/08 04:27:11;;;;;;;;;;;22.80;99.90;;;;;;5047919;28;8193;-65
2021/12/08 04:29:39;;;;;;;;;;;22.90;99.90;;;;;;5081456;28;8714;-64
2021/12/08 04:32:14;;;;;;;;;;;23.10;99.90;;;;;;5092460;28;8049;-65
2021/12/08 04:34:41;;;;;;;;;;;23.00;99.90;;;;;;5091939;28;8071;-65
2021/12/08 04:37:15;;;;;;;;;;;23.10;99.90;;;;;;5092065;28;7593;-64
2021/12/08 04:39:54;;;;;;;;;;;23.20;99.90;;;;;;5073968;28;7988;-64
2021/12/08 04:42:31;;;;;;;;;;;23.10;99.90;;;;;;5090092;28;8117;-65
2021/12/08 04:45:05;;;;;;;;;;;23.40;99.90;;;;;;5075720;28;8093;-65
2021/12/08 04:47:35;;;;;;;;;;;23.50;99.90;;;;;;5074403;28;7812;-65
2021/12/08 05:08:42;;;;;;;;;;;24.00;99.90;;;;;;5096595;28;8303;-64
2021/12/08 05:11:09;;;;;;;;;;;24.00;99.90;;;;;;5078533;28;8066;-64
2021/12/08 05:13:35;;;;;;;;;;;24.10;99.90;;;;;;5094463;28;8159;-67
2021/12/08 05:16:01;;;;;;;;;;;24.20;99.60;;;;;;5044026;28;7579;-64
2021/12/08 05:18:32;;;;;;;;;;;24.20;99.70;;;;;;5060435;28;7812;-64
2021/12/08 05:21:05;;;;;;;;;;;24.30;99.00;;;;;;5043505;28;7961;-64
2021/12/08 05:23:38;;;;;;;;;;;24.30;98.90;;;;;;5058868;28;8176;-63
2021/12/08 05:26:07;;;;;;;;;;;24.30;99.50;;;;;;5078548;28;7798;-64
2021/12/08 05:28:33;;;;;;;;;;;24.60;98.50;;;;;;5062371;28;7998;-63
2021/12/08 05:31:01;;;;;;;;;;;24.40;97.80;;;;;;5065006;28;7536;-63
2021/12/08 05:33:27;;;;;;;;;;;24.30;97.90;;;;;;5098800;28;8383;-64
2021/12/08 05:35:54;;;;;;;;;;;24.50;97.80;;;;;;5065823;28;7838;-63
2021/12/08 05:38:20;;;;;;;;;;;24.90;97.20;;;;;;5062183;28;7900;-63
2021/12/08 05:40:51;;;;;;;;;;;24.90;98.30;;;;;;5058489;28;7779;-64
2021/12/08 05:43:18;;;;;;;;;;;24.80;96.90;;;;;;5059302;28;7526;-63
2021/12/08 05:45:44;;;;;;;;;;;24.90;96.50;;;;;;5039460;28;9174;-63
2021/12/08 05:48:11;;;;;;;;;;;25.00;96.20;;;;;;5037005;28;8041;-63
2021/12/08 05:50:44;;;;;;;;;;;25.00;96.20;;;;;;5038221;28;7819;-64
2021/12/08 05:53:11;;;;;;;;;;;25.00;95.60;;;;;;5038446;28;7995;-64
2021/12/08 05:55:37;;;;;;;;;;;25.00;96.80;;;;;;5038525;28;8154;-64
2021/12/08 05:58:04;;;;;;;;;;;25.10;96.90;;;;;;5039069;28;7577;-64
2021/12/08 06:00:32;;;;;;;;;;;25.20;96.10;;;;;;5035262;28;8153;-64
2021/12/08 06:02:59;;;;;;;;;;;25.20;95.60;;;;;;5038146;28;8008;-64
2021/12/08 06:05:25;;;;;;;;;;;25.10;95.80;;;;;;5040405;28;8025;-65
2021/12/08 06:07:52;;;;;;;;;;;25.20;95.30;;;;;;5042195;28;9531;-65
2021/12/08 06:10:19;;;;;;;;;;;25.40;95.60;;;;;;5041830;28;7526;-65
2021/12/08 06:12:45;;;;;;;;;;;25.50;95.50;;;;;;5042058;28;7936;-66
2021/12/08 06:15:12;;;;;;;;;;;25.50;94.50;;;;;;5057689;28;7993;-71
2021/12/08 06:17:38;;;;;;;;;;;25.40;94.50;;;;;;5061716;28;7780;-70
2021/12/08 06:20:05;;;;;;;;;;;25.30;94.60;;;;;;5062113;28;7917;-69
2021/12/08 06:22:31;;;;;;;;;;;25.20;94.20;;;;;;5061516;28;7932;-69
2021/12/08 06:24:58;;;;;;;;;;;25.40;95.20;;;;;;5062295;28;7535;-68
2021/12/08 06:27:24;;;;;;;;;;;25.30;94.90;;;;;;5060901;28;8248;-69
2021/12/08 06:29:50;;;;;;;;;;;25.50;94.30;;;;;;5064567;28;8173;-70
2021/12/08 06:32:16;;;;;;;;;;;25.70;94.40;;;;;;5041955;28;7880;-72
2021/12/08 06:34:45;;;;;;;;;;;25.80;94.00;;;;;;5033868;28;8163;-72
2021/12/08 06:37:13;;;;;;;;;;;25.60;94.40;;;;;;5055289;28;8014;-71
2021/12/08 06:39:41;;;;;;;;;;;25.60;95.00;;;;;;5040700;28;8161;-71
2021/12/08 06:42:11;;;;;;;;;;;25.70;94.70;;;;;;5041955;28;8099;-73
2021/12/08 06:44:42;;;;;;;;;;;25.80;94.60;;;;;;5052874;28;8138;-73
2021/12/08 06:47:09;;;;;;;;;;;26.00;94.80;;;;;;5060599;28;7852;-72
2021/12/08 06:49:35;;;;;;;;;;;25.90;94.70;;;;;;5062467;28;7578;-73
2021/12/08 06:52:06;;;;;;;;;;;26.00;94.90;;;;;;5062365;28;7661;-73
2021/12/08 06:54:36;;;;;;;;;;;26.10;94.40;;;;;;5061927;28;7996;-72
2021/12/08 06:57:13;;;;;;;;;;;26.00;94.90;;;;;;5060561;28;8100;-73
2021/12/08 06:59:50;;;;;;;;;;;26.20;94.10;;;;;;5048507;28;8135;-72
2021/12/08 07:02:34;;;;;;;;;;;26.00;93.50;;;;;;5038043;28;7987;-71
2021/12/08 07:06:03;;;;;;;;;;;26.00;93.80;;;;;;5040277;28;8007;-73
2021/12/08 07:07:47;;;;;;;;;;;26.20;92.90;;;;;;5035125;28;7937;-73
2021/12/08 07:10:20;;;;;;;;;;;26.20;93.60;;;;;;5038307;28;7632;-72
2021/12/08 07:12:52;;;;;;;;;;;26.10;93.30;;;;;;5037748;28;8256;-73
2021/12/08 07:15:38;;;;;;;;;;;26.10;93.40;;;;;;5055083;28;8121;-72
2021/12/08 07:18:09;;;;;;;;;;;26.20;93.90;;;;;;5058480;28;7948;-73
2021/12/08 07:20:47;;;;;;;;;;;26.20;93.60;;;;;;5057265;28;8313;-73
2021/12/08 07:23:23;;;;;;;;;;;26.20;93.90;;;;;;5057436;28;8168;-72
2021/12/08 07:25:50;;;;;;;;;;;26.40;93.70;;;;;;5058618;28;8114;-73
2021/12/08 07:28:17;;;;;;;;;;;26.30;93.30;;;;;;5058999;28;7558;-73
2021/12/08 07:30:45;;;;;;;;;;;26.20;93.70;;;;;;5038743;28;7911;-73
2021/12/08 07:33:11;;;;;;;;;;;26.20;93.80;;;;;;5038617;28;7967;-73
2021/12/08 07:35:39;;;;;;;;;;;26.30;93.70;;;;;;5040814;28;8074;-72
2021/12/08 07:38:06;;;;;;;;;;;26.20;93.80;;;;;;5078578;28;7762;-72
2021/12/08 07:40:41;;;;;;;;;;;26.10;94.40;;;;;;5060710;28;8843;-72
2021/12/08 07:43:09;;;;;;;;;;;26.20;94.20;;;;;;5081541;28;7585;-73
2021/12/08 07:45:40;;;;;;;;;;;26.10;93.40;;;;;;5099598;28;8362;-73
2021/12/08 07:48:07;;;;;;;;;;;26.20;93.50;;;;;;5101747;28;8008;-73
2021/12/08 07:50:42;;;;;;;;;;;26.20;93.30;;;;;;5082555;28;7821;-72
2021/12/08 07:53:08;;;;;;;;;;;26.20;94.10;;;;;;5082979;28;7912;-72
2021/12/08 07:55:37;;;;;;;;;;;26.10;94.10;;;;;;5100934;28;7955;-72
2021/12/08 07:58:03;;;;;;;;;;;26.20;93.00;;;;;;5101419;28;7650;-73
2021/12/08 08:00:29;;;;;;;;;;;26.30;93.70;;;;;;5082424;28;8072;-72
2021/12/08 08:02:55;;;;;;;;;;;26.40;93.30;;;;;;5081123;28;7956;-73
2021/12/08 08:05:23;;;;;;;;;;;26.40;93.30;;;;;;5062473;28;8301;-72
2021/12/08 08:07:49;;;;;;;;;;;26.50;93.10;;;;;;5063820;28;7572;-72
2021/12/08 08:10:16;;;;;;;;;;;26.60;93.20;;;;;;5080903;28;7970;-73
2021/12/08 08:12:43;;;;;;;;;;;26.60;92.90;;;;;;5080605;28;7905;-72
2021/12/08 08:15:11;;;;;;;;;;;26.50;92.50;;;;;;5077745;28;8562;-73
2021/12/08 08:17:42;;;;;;;;;;;26.50;93.60;;;;;;5072075;28;8088;-73
2021/12/08 08:20:13;;;;;;;;;;;26.60;92.80;;;;;;5082701;28;8170;-72
2021/12/08 08:22:39;;;;;;;;;;;26.60;92.80;;;;;;5090066;28;7830;-72
2021/12/08 08:25:06;;;;;;;;;;;26.70;92.70;;;;;;5099849;28;7562;-73
2021/12/08 08:27:32;;;;;;;;;;;26.70;92.70;;;;;;5088115;28;7794;-73
2021/12/08 08:29:59;;;;;;;;;;;26.70;92.60;;;;;;5068195;28;8114;-72
2021/12/08 08:32:29;;;;;;;;;;;26.50;92.80;;;;;;5062001;28;8080;-73
2021/12/08 08:34:59;;;;;;;;;;;26.60;92.00;;;;;;5062219;28;8018;-72
2021/12/08 08:37:25;;;;;;;;;;;26.50;92.30;;;;;;5041492;28;7851;-71
2021/12/08 08:39:53;;;;;;;;;;;26.50;92.80;;;;;;5040411;28;7571;-73
2021/12/08 08:42:20;;;;;;;;;;;26.50;92.50;;;;;;5038151;28;7891;-72
2021/12/08 08:44:48;;;;;;;;;;;26.40;92.50;;;;;;5051375;28;8127;-72
2021/12/08 08:47:20;;;;;;;;;;;26.40;93.20;;;;;;5075014;28;8096;-72
2021/12/08 08:49:46;;;;;;;;;;;26.30;93.00;;;;;;5059841;28;7820;-72
2021/12/08 08:52:44;;;;;;;;;;;26.20;92.80;;;;;;5059884;28;7566;-72
2021/12/08 08:58:11;;;;;;;;;;;26.40;93.50;;;;;;5057817;28;7701;-73
2021/12/08 09:00:48;;;;;;;;;;;26.40;92.60;;;;;;5039965;28;8045;-73
2021/12/08 09:03:16;;;;;;;;;;;26.40;92.70;;;;;;5039576;28;8035;-72
2021/12/08 09:05:45;;;;;;;;;;;26.40;92.50;;;;;;5038236;28;7806;-72
2021/12/08 09:08:12;;;;;;;;;;;26.40;92.50;;;;;;5039350;28;7945;-72
2021/12/08 09:10:40;;;;;;;;;;;26.40;92.80;;;;;;5037927;28;8189;-72
2021/12/08 09:13:10;;;;;;;;;;;26.30;92.60;;;;;;5039690;28;7570;-72
2021/12/08 09:15:47;;;;;;;;;;;26.20;93.40;;;;;;5056521;28;8007;-72
2021/12/08 09:18:15;;;;;;;;;;;26.10;94.60;;;;;;5059372;28;8145;-72
2021/12/08 09:20:59;;;;;;;;;;;26.10;95.00;;;;;;5058866;28;7772;-72
2021/12/08 09:23:45;;;;;;;;;;;26.20;93.60;;;;;;5058553;28;7945;-71
2021/12/08 09:26:12;;;;;;;;;;;26.30;92.60;;;;;;5057875;28;7978;-72
2021/12/08 09:28:42;;;;;;;;;;;26.30;92.40;;;;;;5071325;28;8616;-72
2021/12/08 09:31:16;;;;;;;;;;;26.30;92.00;;;;;;5039566;28;7575;-72
2021/12/08 09:33:44;;;;;;;;;;;26.40;91.50;;;;;;5039034;28;8027;-72
2021/12/08 09:36:12;;;;;;;;;;;26.30;92.80;;;;;;5051353;28;7818;-72
2021/12/08 09:38:43;;;;;;;;;;;26.30;92.50;;;;;;5043569;28;8028;-72
2021/12/08 09:41:13;;;;;;;;;;;26.20;92.50;;;;;;5078283;28;8006;-72
2021/12/08 09:43:41;;;;;;;;;;;26.20;93.10;;;;;;5063231;28;8012;-72
2021/12/08 09:46:10;;;;;;;;;;;26.00;93.80;;;;;;5099309;28;7589;-72
2021/12/08 09:48:39;;;;;;;;;;;26.00;94.20;;;;;;5098732;28;8019;-72
2021/12/08 09:51:05;;;;;;;;;;;25.90;94.00;;;;;;5064044;28;7752;-72
2021/12/08 09:53:33;;;;;;;;;;;25.90;94.20;;;;;;5087656;28;8132;-72
2021/12/08 09:56:00;;;;;;;;;;;25.90;94.10;;;;;;5080729;28;7920;-72
2021/12/08 09:58:26;;;;;;;;;;;25.80;93.90;;;;;;5097949;28;8060;-71
2021/12/08 10:00:55;;;;;;;;;;;25.80;94.60;;;;;;5079012;28;7570;-72
2021/12/08 10:03:22;;;;;;;;;;;25.70;95.20;;;;;;5059886;28;8024;-71
2021/12/08 10:05:48;;;;;;;;;;;25.60;95.50;;;;;;5078409;28;8866;-72
2021/12/08 10:08:14;;;;;;;;;;;25.50;96.20;;;;;;5060032;28;7968;-72
2021/12/08 10:10:41;;;;;;;;;;;25.40;96.10;;;;;;5059917;28;7963;-72
2021/12/08 10:13:07;;;;;;;;;;;25.40;96.80;;;;;;5079115;28;7578;-72
2021/12/08 10:15:34;;;;;;;;;;;25.40;95.90;;;;;;5078821;28;8014;-72
2021/12/08 10:18:00;;;;;;;;;;;25.30;96.00;;;;;;5080831;28;7991;-72
2021/12/08 10:20:31;;;;;;;;;;;25.20;96.20;;;;;;5098020;28;8006;-72
2021/12/08 10:23:12;;;;;;;;;;;25.20;96.30;;;;;;5080893;28;7767;-72
2021/12/08 10:25:43;;;;;;;;;;;25.10;96.00;;;;;;5098096;28;7964;-72
2021/12/08 10:28:09;;;;;;;;;;;25.10;95.80;;;;;;5099219;28;7982;-71
2021/12/08 10:30:38;;;;;;;;;;;25.00;96.20;;;;;;5079290;28;7982;-71
2021/12/08 10:33:11;;;;;;;;;;;24.90;97.10;;;;;;5060781;28;7844;-71
2021/12/08 10:35:47;;;;;;;;;;;24.90;97.30;;;;;;5060575;28;8180;-72
2021/12/08 10:38:16;;;;;;;;;;;24.80;97.40;;;;;;5078041;28;7805;-72
2021/12/08 10:41:01;;;;;;;;;;;24.80;97.60;;;;;;5078065;28;8017;-71
2021/12/08 10:43:28;;;;;;;;;;;24.70;99.40;;;;;;5078801;28;7880;-71
2021/12/08 10:46:09;;;;;;;;;;;24.40;99.30;;;;;;5099084;28;7557;-71
2021/12/08 10:48:41;;;;;;;;;;;24.30;99.50;;;;;;5089528;28;7994;-71
2021/12/08 10:54:27;;;;;;;;;;;24.20;99.80;;;;;;5101772;28;7982;-72
2021/12/08 10:56:57;;;;;;;;;;;24.10;99.90;;;;;;5101631;28;8189;-72
2021/12/08 10:59:25;;;;;;;;;;;24.10;99.90;;;;;;5092366;28;7982;-71
2021/12/08 11:01:51;;;;;;;;;;;24.00;99.90;;;;;;5081254;28;7914;-72
2021/12/08 11:04:19;;;;;;;;;;;23.90;99.90;;;;;;5081706;28;7558;-71
2021/12/08 11:06:47;;;;;;;;;;;23.90;99.90;;;;;;5063889;28;8864;-71
2021/12/08 11:09:14;;;;;;;;;;;23.90;99.90;;;;;;5081475;28;7883;-72
2021/12/08 11:11:43;;;;;;;;;;;23.80;99.90;;;;;;5081250;28;8008;-72
2021/12/08 11:14:10;;;;;;;;;;;23.70;99.90;;;;;;5088152;28;7861;-72
2021/12/08 11:16:38;;;;;;;;;;;23.70;99.90;;;;;;5083304;28;7839;-70
2021/12/08 11:19:06;;;;;;;;;;;23.60;99.90;;;;;;5083759;28;7570;-71
2021/12/08 11:21:37;;;;;;;;;;;23.60;99.90;;;;;;5101274;28;8028;-70
2021/12/08 11:24:05;;;;;;;;;;;23.60;99.90;;;;;;5102286;28;8275;-71
2021/12/08 11:26:33;;;;;;;;;;;23.50;99.90;;;;;;5083230;28;7963;-70
2021/12/08 11:29:12;;;;;;;;;;;23.40;99.90;;;;;;5095788;28;8528;-71
2021/12/08 11:31:40;;;;;;;;;;;23.50;99.90;;;;;;5080328;28;7793;-70
2021/12/08 11:34:12;;;;;;;;;;;23.50;99.90;;;;;;5080912;28;7574;-71
2021/12/08 11:36:39;;;;;;;;;;;23.30;99.90;;;;;;5048732;28;7984;-71
2021/12/08 11:39:12;;;;;;;;;;;23.20;99.90;;;;;;5039178;28;7945;-71
2021/12/08 11:41:39;;;;;;;;;;;23.20;99.90;;;;;;5023281;28;8011;-70
2021/12/08 11:44:07;;;;;;;;;;;23.20;99.90;;;;;;5046740;28;7924;-71
2021/12/08 11:46:37;;;;;;;;;;;23.10;99.90;;;;;;5059330;28;7909;-70
2021/12/08 11:49:04;;;;;;;;;;;23.10;99.90;;;;;;5060891;28;7562;-71
2021/12/08 11:51:31;;;;;;;;;;;23.00;99.90;;;;;;5060803;28;9169;-71
2021/12/08 11:53:57;;;;;;;;;;;22.90;99.90;;;;;;5059627;28;7946;-71
2021/12/08 11:56:30;;;;;;;;;;;22.80;99.90;;;;;;5060408;28;7785;-71
2021/12/08 11:58:57;;;;;;;;;;;22.60;99.90;;;;;;5055526;28;7918;-71
2021/12/08 12:01:23;;;;;;;;;;;22.70;99.90;;;;;;5040870;28;7570;-70
2021/12/08 12:03:50;;;;;;;;;;;22.80;99.90;;;;;;5022562;28;8333;-71
2021/12/08 12:06:16;;;;;;;;;;;22.70;99.90;;;;;;5039462;28;7902;-71
2021/12/08 12:08:42;;;;;;;;;;;22.70;99.90;;;;;;5040525;28;7832;-71
2021/12/08 12:11:08;;;;;;;;;;;22.70;99.90;;;;;;5039155;28;7981;-71
2021/12/08 12:13:38;;;;;;;;;;;22.70;99.90;;;;;;5041917;28;8288;-71
2021/12/08 12:16:07;;;;;;;;;;;22.70;99.90;;;;;;5060389;28;7576;-71
2021/12/08 12:18:33;;;;;;;;;;;22.70;99.90;;;;;;5075441;28;8096;-71
2021/12/08 12:21:22;;;;;;;;;;;22.70;99.90;;;;;;5059976;28;7899;-71
2021/12/08 12:24:24;;;;;;;;;;;22.70;99.90;;;;;;5054568;28;7763;-71
2021/12/08 12:27:08;;;;;;;;;;;22.60;99.90;;;;;;5018118;28;8433;-71
2021/12/08 12:29:37;;;;;;;;;;;22.50;99.90;;;;;;5046596;28;8196;-71
2021/12/08 12:32:36;;;;;;;;;;;22.40;99.90;;;;;;5021731;28;7852;-72
2021/12/08 12:35:08;;;;;;;;;;;22.40;99.90;;;;;;5017460;28;7935;-72
2021/12/08 12:37:35;;;;;;;;;;;22.50;99.90;;;;;;5031655;28;8093;-71
2021/12/08 12:40:02;;;;;;;;;;;22.50;99.90;;;;;;5043748;28;7587;-71
2021/12/08 12:42:43;;;;;;;;;;;22.50;99.90;;;;;;5040517;28;8001;-71
2021/12/08 12:45:12;;;;;;;;;;;22.40;99.90;;;;;;5055342;28;8090;-70
2021/12/08 12:47:38;;;;;;;;;;;22.50;99.90;;;;;;5059850;28;8124;-71
2021/12/08 12:50:04;;;;;;;;;;;22.50;99.90;;;;;;5059687;28;7913;-71
2021/12/08 12:52:35;;;;;;;;;;;22.30;99.90;;;;;;5058595;28;7978;-70
2021/12/08 12:55:12;;;;;;;;;;;22.10;99.90;;;;;;5060063;28;7582;-71
2021/12/08 12:57:57;;;;;;;;;;;22.20;99.90;;;;;;5057858;28;7973;-71
2021/12/08 13:00:49;;;;;;;;;;;22.10;99.90;;;;;;5042626;28;8071;-71
2021/12/08 13:03:33;;;;;;;;;;;22.10;99.90;;;;;;5037540;28;8014;-71
2021/12/08 13:05:59;;;;;;;;;;;22.10;99.90;;;;;;5039510;28;8171;-71
2021/12/08 13:08:29;;;;;;;;;;;22.00;99.90;;;;;;5037659;28;7904;-71
2021/12/08 13:10:56;;;;;;;;;;;21.90;99.90;;;;;;5037938;28;7966;-71
2021/12/08 13:13:22;;;;;;;;;;;21.80;99.90;;;;;;5022119;28;7565;-71
2021/12/08 13:15:48;;;;;;;;;;;21.70;99.90;;;;;;5073792;28;7828;-71
2021/12/08 13:18:15;;;;;;;;;;;21.80;99.90;;;;;;5059129;28;8234;-71
2021/12/08 13:20:45;;;;;;;;;;;21.80;99.90;;;;;;5059543;28;8084;-71
2021/12/08 13:23:11;;;;;;;;;;;21.80;99.90;;;;;;5057884;28;8021;-71
2021/12/08 13:28:21;;;;;;;;;;;21.90;99.90;;;;;;5060390;28;7573;-71
2021/12/08 13:30:49;;;;;;;;;;;21.80;99.90;;;;;;5039371;28;7949;-71
2021/12/08 13:33:35;;;;;;;;;;;21.70;99.90;;;;;;5039057;28;7927;-71
2021/12/08 13:36:03;;;;;;;;;;;21.70;99.90;;;;;;5044497;28;8276;-71
2021/12/08 13:38:30;;;;;;;;;;;21.60;99.90;;;;;;5060968;28;7892;-70
2021/12/08 13:40:57;;;;;;;;;;;21.60;99.90;;;;;;5061282;28;7940;-71
2021/12/08 13:43:33;;;;;;;;;;;21.60;99.90;;;;;;5079657;28;7565;-71
2021/12/08 13:46:00;;;;;;;;;;;21.70;99.90;;;;;;5081294;28;8388;-71
2021/12/08 13:48:26;;;;;;;;;;;21.70;99.90;;;;;;5098928;28;8140;-71
2021/12/08 13:50:52;;;;;;;;;;;21.60;99.90;;;;;;5064140;28;8315;-71
2021/12/08 13:53:18;;;;;;;;;;;21.60;99.90;;;;;;5080672;28;8054;-70
2021/12/08 13:55:48;;;;;;;;;;;21.50;99.90;;;;;;5098808;28;7987;-71
2021/12/08 13:58:15;;;;;;;;;;;21.40;99.90;;;;;;5081283;28;8005;-71
2021/12/08 14:00:43;;;;;;;;;;;21.30;99.90;;;;;;5098776;28;8048;-71
2021/12/08 14:03:10;;;;;;;;;;;21.10;99.90;;;;;;5098815;28;7907;-71
2021/12/08 14:05:41;;;;;;;;;;;21.30;99.90;;;;;;5098536;28;7773;-71
2021/12/08 14:08:24;;;;;;;;;;;21.30;99.90;;;;;;5098650;28;8002;-71
2021/12/08 14:10:51;;;;;;;;;;;21.30;99.90;;;;;;5080516;28;7868;-71
2021/12/08 14:13:19;;;;;;;;;;;21.30;99.90;;;;;;5081051;28;7566;-70
2021/12/08 14:16:11;;;;;;;;;;;21.30;99.90;;;;;;5078555;28;8124;-71
2021/12/08 14:18:38;;;;;;;;;;;21.30;99.90;;;;;;5073386;28;8893;-71
2021/12/08 14:21:10;;;;;;;;;;;21.30;99.90;;;;;;5060504;28;7921;-71
2021/12/08 14:23:41;;;;;;;;;;;21.20;99.90;;;;;;5077950;28;7916;-71
2021/12/08 14:26:14;;;;;;;;;;;21.10;99.90;;;;;;5080061;28;7787;-71
2021/12/08 14:28:41;;;;;;;;;;;21.10;99.90;;;;;;5085113;28;8163;-71
2021/12/08 14:31:08;;;;;;;;;;;21.10;99.90;;;;;;5103217;28;8073;-71
2021/12/08 14:33:34;;;;;;;;;;;21.10;99.90;;;;;;5102754;28;7962;-71
2021/12/08 14:36:02;;;;;;;;;;;21.20;99.90;;;;;;5102286;28;8067;-71
2021/12/08 14:38:28;;;;;;;;;;;21.10;99.90;;;;;;5102422;28;7833;-71
2021/12/08 14:40:57;;;;;;;;;;;21.00;99.90;;;;;;5084136;28;7913;-71
2021/12/08 14:43:24;;;;;;;;;;;21.00;99.90;;;;;;5102742;28;7564;-70
2021/12/08 14:45:51;;;;;;;;;;;20.90;99.90;;;;;;5082190;28;8213;-71
2021/12/08 14:48:17;;;;;;;;;;;21.00;99.90;;;;;;5082033;28;7900;-71
2021/12/08 14:50:43;;;;;;;;;;;21.00;99.90;;;;;;5081842;28;7822;-71
2021/12/08 14:53:13;;;;;;;;;;;20.90;99.90;;;;;;5082502;28;7761;-71
2021/12/08 14:55:39;;;;;;;;;;;20.80;99.90;;;;;;5081381;28;8300;-71
2021/12/08 14:58:05;;;;;;;;;;;20.90;99.90;;;;;;5064122;28;7585;-71
2021/12/08 15:00:32;;;;;;;;;;;20.90;99.90;;;;;;5099708;28;8205;-71
2021/12/08 15:03:04;;;;;;;;;;;20.90;99.90;;;;;;5102391;28;8147;-71
2021/12/08 15:05:31;;;;;;;;;;;20.90;99.90;;;;;;5101901;28;7744;-71
2021/12/08 15:08:06;;;;;;;;;;;20.80;99.90;;;;;;5084074;28;7956;-71
2021/12/08 15:10:32;;;;;;;;;;;20.70;99.90;;;;;;5101763;28;8150;-71
2021/12/08 15:13:15;;;;;;;;;;;20.70;99.90;;;;;;5102846;28;7601;-71
2021/12/08 15:15:42;;;;;;;;;;;20.80;99.90;;;;;;5084311;28;7989;-71
2021/12/08 15:18:08;;;;;;;;;;;20.70;99.90;;;;;;5102117;28;7911;-71
2021/12/08 15:20:37;;;;;;;;;;;20.60;99.90;;;;;;5101847;28;7758;-71
2021/12/08 15:23:10;;;;;;;;;;;20.60;99.90;;;;;;5101498;28;7963;-71
2021/12/08 15:25:36;;;;;;;;;;;20.70;99.90;;;;;;5101150;28;8246;-70
2021/12/08 15:28:05;;;;;;;;;;;20.70;99.90;;;;;;5101955;28;7712;-71
2021/12/08 15:30:35;;;;;;;;;;;20.60;99.90;;;;;;5101205;28;8115;-71
2021/12/08 15:33:06;;;;;;;;;;;20.60;99.90;;;;;;5101494;28;8048;-71